sensor_id;sensor_type;location;lat;lon;timestamp;pressure;altitude;pressure_sealevel;temperature;humidity
15932;BME280;8065;49.520;11.284;2022-12-07T00:00:51;97426.09;;;7.98;79.83
15932;BME280;8065;49.520;11.284;2022-12-07T00:03:19;97426.25;;;8.01;80.16
15932;BME280;8065;49.520;11.284;2022-12-07T00:05:45;97423.75;;;7.96;80.28
15932;BME280;8065;49.520;11.284;2022-12-07T00:08:12;97425.91;;;7.94;80.12
15932;BME280;8065;49.520;11.284;2022-12-07T00:10:38;97416.41;;;7.93;79.64
15932;BME280;8065;49.520;11.284;2022-12-07T00:13:05;97419.06;;;7.93;80.02
15932;BME280;8065;49.520;11.284;2022-12-07T00:15:33;97414.72;;;7.97;79.27
15932;BME280;8065;49.520;11.284;2022-12-07T00:18:00;97422.19;;;7.95;79.65
15932;BME280;8065;49.520;11.284;2022-12-07T00:20:27;97420.91;;;7.93;79.58
15932;BME280;8065;49.520;11.284;2022-12-07T00:22:54;97418.44;;;7.96;79.59
15932;BME280;8065;49.520;11.284;2022-12-07T00:25:20;97410.22;;;7.98;80.05
15932;BME280;8065;49.520;11.284;2022-12-07T00:27:47;97413.94;;;7.97;79.27
15932;BME280;8065;49.520;11.284;2022-12-07T00:30:14;97405.69;;;7.98;79.71
15932;BME280;8065;49.520;11.284;2022-12-07T00:32:40;97403.53;;;8.00;78.69
15932;BME280;8065;49.520;11.284;2022-12-07T00:35:07;97407.09;;;7.96;80.18
15932;BME280;8065;49.520;11.284;2022-12-07T00:37:35;97403.06;;;7.98;79.62
15932;BME280;8065;49.520;11.284;2022-12-07T00:40:02;97409.44;;;7.97;79.37
15932;BME280;8065;49.520;11.284;2022-12-07T00:42:28;97401.66;;;8.01;79.76
15932;BME280;8065;49.520;11.284;2022-12-07T00:44:54;97403.53;;;8.00;79.11
15932;BME280;8065;49.520;11.284;2022-12-07T00:47:21;97405.69;;;7.98;79.50
15932;BME280;8065;49.520;11.284;2022-12-07T00:49:47;97404.00;;;8.02;79.84
15932;BME280;8065;49.520;11.284;2022-12-07T00:52:14;97413.28;;;7.91;79.05
15932;BME280;8065;49.520;11.284;2022-12-07T00:54:42;97412.56;;;7.99;79.63
15932;BME280;8065;49.520;11.284;2022-12-07T00:57:08;97415.31;;;7.94;79.66
15932;BME280;8065;49.520;11.284;2022-12-07T00:59:35;97413.75;;;7.93;79.17
15932;BME280;8065;49.520;11.284;2022-12-07T01:02:01;97419.41;;;8.00;79.51
15932;BME280;8065;49.520;11.284;2022-12-07T01:04:28;97413.34;;;8.00;79.08
15932;BME280;8065;49.520;11.284;2022-12-07T01:06:54;97412.06;;;7.97;80.08
15932;BME280;8065;49.520;11.284;2022-12-07T01:09:21;97413.75;;;7.93;78.80
15932;BME280;8065;49.520;11.284;2022-12-07T01:11:49;97413.41;;;7.86;80.11
15932;BME280;8065;49.520;11.284;2022-12-07T01:14:15;97412.78;;;7.89;79.35
15932;BME280;8065;49.520;11.284;2022-12-07T01:16:41;97412.78;;;7.89;80.09
15932;BME280;8065;49.520;11.284;2022-12-07T01:19:08;97412.19;;;7.92;79.12
15932;BME280;8065;49.520;11.284;2022-12-07T01:21:35;97410.03;;;7.94;79.24
15932;BME280;8065;49.520;11.284;2022-12-07T01:24:03;97397.88;;;7.93;80.10
15932;BME280;8065;49.520;11.284;2022-12-07T01:26:30;97400.06;;;7.91;79.10
15932;BME280;8065;49.520;11.284;2022-12-07T01:28:58;97411.22;;;7.88;79.11
15932;BME280;8065;49.520;11.284;2022-12-07T01:31:26;97410.63;;;7.91;79.02
15932;BME280;8065;49.520;11.284;2022-12-07T01:33:55;97416.41;;;7.93;79.76
15932;BME280;8065;49.520;11.284;2022-12-07T01:36:24;97421.34;;;7.86;80.23
15932;BME280;8065;49.520;11.284;2022-12-07T01:38:53;97421.22;;;7.91;79.60
15932;BME280;8065;49.520;11.284;2022-12-07T01:41:22;97420.25;;;7.87;79.41
15932;BME280;8065;49.520;11.284;2022-12-07T01:44:12;97414.34;;;7.90;80.13
15932;BME280;8065;49.520;11.284;2022-12-07T01:46:40;97412.78;;;7.89;79.92
15932;BME280;8065;49.520;11.284;2022-12-07T01:49:10;97413.41;;;7.86;79.98
15932;BME280;8065;49.520;11.284;2022-12-07T01:51:40;97415.56;;;7.84;80.33
15932;BME280;8065;49.520;11.284;2022-12-07T01:54:07;97414.34;;;7.90;79.02
15932;BME280;8065;49.520;11.284;2022-12-07T01:56:34;97418.69;;;7.86;79.72
15932;BME280;8065;49.520;11.284;2022-12-07T01:59:00;97414.97;;;7.87;79.20
15932;BME280;8065;49.520;11.284;2022-12-07T02:01:29;97412.78;;;7.89;79.16
15932;BME280;8065;49.520;11.284;2022-12-07T02:03:55;97409.84;;;7.90;79.38
15932;BME280;8065;49.520;11.284;2022-12-07T02:06:25;97408.09;;;7.86;79.38
15932;BME280;8065;49.520;11.284;2022-12-07T02:08:52;97409.06;;;7.90;79.19
15932;BME280;8065;49.520;11.284;2022-12-07T02:11:20;97413.41;;;7.86;79.06
15932;BME280;8065;49.520;11.284;2022-12-07T02:13:47;97406.53;;;7.85;78.89
15932;BME280;8065;49.520;11.284;2022-12-07T02:16:29;97402.81;;;7.86;79.90
15932;BME280;8065;49.520;11.284;2022-12-07T02:19:20;97410.28;;;7.84;80.04
15932;BME280;8065;49.520;11.284;2022-12-07T02:21:53;97411.06;;;7.84;79.65
15932;BME280;8065;49.520;11.284;2022-12-07T02:24:40;97414.63;;;7.80;80.11
15932;BME280;8065;49.520;11.284;2022-12-07T02:27:31;97400.97;;;7.86;79.90
15932;BME280;8065;49.520;11.284;2022-12-07T02:30:04;97413.41;;;7.86;79.55
15932;BME280;8065;49.520;11.284;2022-12-07T02:32:37;97411.84;;;7.85;80.00
15932;BME280;8065;49.520;11.284;2022-12-07T02:35:09;97410.09;;;7.80;79.02
15932;BME280;8065;49.520;11.284;2022-12-07T02:37:39;97414.47;;;7.85;78.93
15932;BME280;8065;49.520;11.284;2022-12-07T02:40:10;97407.03;;;7.87;78.88
15932;BME280;8065;49.520;11.284;2022-12-07T02:42:42;97406.38;;;7.81;79.61
15932;BME280;8065;49.520;11.284;2022-12-07T02:45:15;97401.84;;;7.82;79.51
15932;BME280;8065;49.520;11.284;2022-12-07T02:47:44;97401.25;;;7.85;79.57
15932;BME280;8065;49.520;11.284;2022-12-07T02:50:12;97395.47;;;7.83;79.97
15932;BME280;8065;49.520;11.284;2022-12-07T02:52:38;97400.28;;;7.81;79.59
15932;BME280;8065;49.520;11.284;2022-12-07T02:55:06;97400.28;;;7.81;80.00
15932;BME280;8065;49.520;11.284;2022-12-07T02:57:45;97388.50;;;7.87;78.90
15932;BME280;8065;49.520;11.284;2022-12-07T03:00:18;97386.94;;;7.86;78.87
15932;BME280;8065;49.520;11.284;2022-12-07T03:02:51;97384.78;;;7.88;79.56
15932;BME280;8065;49.520;11.284;2022-12-07T03:05:31;97386.94;;;7.86;80.02
15932;BME280;8065;49.520;11.284;2022-12-07T03:08:04;97389.47;;;7.91;78.90
15932;BME280;8065;49.520;11.284;2022-12-07T03:10:36;97389.94;;;7.93;79.21
15932;BME280;8065;49.520;11.284;2022-12-07T03:13:12;97380.16;;;7.94;79.80
15932;BME280;8065;49.520;11.284;2022-12-07T03:15:50;97379.50;;;7.88;78.56
15932;BME280;8065;49.520;11.284;2022-12-07T03:18:22;97382.31;;;7.92;79.67
15932;BME280;8065;49.520;11.284;2022-12-07T03:20:53;97369.31;;;7.50;80.44
15932;BME280;8065;49.520;11.284;2022-12-07T03:23:23;97377.16;;;7.42;81.33
15932;BME280;8065;49.520;11.284;2022-12-07T03:25:56;97368.09;;;7.56;79.89
15932;BME280;8065;49.520;11.284;2022-12-07T03:28:31;97370.44;;;7.58;80.24
15932;BME280;8065;49.520;11.284;2022-12-07T03:31:03;97368.09;;;7.56;80.04
15932;BME280;8065;49.520;11.284;2022-12-07T03:33:38;97367.31;;;7.56;80.06
15932;BME280;8065;49.520;11.284;2022-12-07T03:36:08;97361.91;;;7.61;80.54
15932;BME280;8065;49.520;11.284;2022-12-07T03:38:42;97352.25;;;7.56;79.80
15932;BME280;8065;49.520;11.284;2022-12-07T03:41:13;97353.19;;;7.61;79.50
15932;BME280;8065;49.520;11.284;2022-12-07T03:43:40;97347.91;;;7.61;79.77
15932;BME280;8065;49.520;11.284;2022-12-07T03:46:15;97346.34;;;7.60;80.53
15932;BME280;8065;49.520;11.284;2022-12-07T03:48:50;97351.16;;;7.57;80.69
15932;BME280;8065;49.520;11.284;2022-12-07T03:51:22;97343.22;;;7.57;80.58
15932;BME280;8065;49.520;11.284;2022-12-07T03:53:54;97346.97;;;7.56;79.54
15932;BME280;8065;49.520;11.284;2022-12-07T03:56:25;97335.78;;;7.60;79.99
15932;BME280;8065;49.520;11.284;2022-12-07T03:58:53;97327.78;;;7.51;80.29
15932;BME280;8065;49.520;11.284;2022-12-07T04:01:22;97325.75;;;7.48;79.81
15932;BME280;8065;49.520;11.284;2022-12-07T04:03:49;97328.81;;;7.41;79.68
15932;BME280;8065;49.520;11.284;2022-12-07T04:06:15;97333.31;;;7.41;80.36
15932;BME280;8065;49.520;11.284;2022-12-07T04:08:42;97335.78;;;7.37;79.51
15932;BME280;8065;49.520;11.284;2022-12-07T04:11:08;97341.97;;;7.33;79.72
15932;BME280;8065;49.520;11.284;2022-12-07T04:13:35;97345.97;;;7.30;80.08
15932;BME280;8065;49.520;11.284;2022-12-07T04:16:23;97343.94;;;7.27;79.57
15932;BME280;8065;49.520;11.284;2022-12-07T04:18:49;97337.97;;;7.21;79.74
15932;BME280;8065;49.520;11.284;2022-12-07T04:21:15;97342.00;;;7.19;79.50
15932;BME280;8065;49.520;11.284;2022-12-07T04:23:42;97346.03;;;7.16;79.91
15932;BME280;8065;49.520;11.284;2022-12-07T04:26:08;97340.19;;;7.06;79.60
15932;BME280;8065;49.520;11.284;2022-12-07T04:28:35;97343.41;;;7.03;79.74
15932;BME280;8065;49.520;11.284;2022-12-07T04:31:01;97348.31;;;6.96;79.68
15932;BME280;8065;49.520;11.284;2022-12-07T04:33:29;97349.59;;;6.98;79.49
15932;BME280;8065;49.520;11.284;2022-12-07T04:35:55;97339.56;;;6.86;79.77
15932;BME280;8065;49.520;11.284;2022-12-07T04:38:22;97343.19;;;6.90;79.34
15932;BME280;8065;49.520;11.284;2022-12-07T04:40:48;97353.25;;;6.88;79.48
15932;BME280;8065;49.520;11.284;2022-12-07T04:43:15;97356.97;;;6.87;80.21
15932;BME280;8065;49.520;11.284;2022-12-07T04:45:45;97349.53;;;6.89;79.54
15932;BME280;8065;49.520;11.284;2022-12-07T04:48:12;97357.94;;;6.92;80.00
15932;BME280;8065;49.520;11.284;2022-12-07T04:50:40;97356.38;;;6.90;79.86
15932;BME280;8065;49.520;11.284;2022-12-07T04:53:06;97357.94;;;6.92;80.11
15932;BME280;8065;49.520;11.284;2022-12-07T04:55:33;97356.50;;;6.85;79.64
15932;BME280;8065;49.520;11.284;2022-12-07T04:57:59;97353.25;;;6.88;79.51
15932;BME280;8065;49.520;11.284;2022-12-07T05:00:25;97359.50;;;6.93;79.74
15932;BME280;8065;49.520;11.284;2022-12-07T05:02:52;97363.22;;;6.92;80.02
15932;BME280;8065;49.520;11.284;2022-12-07T05:05:18;97371.94;;;6.92;79.73
15932;BME280;8065;49.520;11.284;2022-12-07T05:07:46;97367.91;;;6.95;79.86
15932;BME280;8065;49.520;11.284;2022-12-07T05:10:13;97374.75;;;6.96;79.95
15932;BME280;8065;49.520;11.284;2022-12-07T05:12:39;97374.94;;;6.99;79.56
15932;BME280;8065;49.520;11.284;2022-12-07T05:15:06;97360.84;;;7.04;79.07
15932;BME280;8065;49.520;11.284;2022-12-07T05:17:32;97363.78;;;7.02;79.35
15932;BME280;8065;49.520;11.284;2022-12-07T05:19:59;97354.09;;;6.98;78.89
15932;BME280;8065;49.520;11.284;2022-12-07T05:22:25;97352.63;;;7.05;79.49
15932;BME280;8065;49.520;11.284;2022-12-07T05:24:54;97357.53;;;6.98;78.95
15932;BME280;8065;49.520;11.284;2022-12-07T05:27:21;97355.56;;;7.04;79.10
15932;BME280;8065;49.520;11.284;2022-12-07T05:29:49;97366.53;;;6.97;79.57
15932;BME280;8065;49.520;11.284;2022-12-07T05:32:16;97372.59;;;6.98;79.10
15932;BME280;8065;49.520;11.284;2022-12-07T05:34:42;97370.44;;;7.00;79.76
15932;BME280;8065;49.520;11.284;2022-12-07T05:37:09;97360.34;;;7.02;79.74
15932;BME280;8065;49.520;11.284;2022-12-07T05:39:36;97362.41;;;7.05;78.94
15932;BME280;8065;49.520;11.284;2022-12-07T05:42:04;97371.41;;;7.04;79.20
15932;BME280;8065;49.520;11.284;2022-12-07T05:44:39;97369.44;;;7.09;79.26
15932;BME280;8065;49.520;11.284;2022-12-07T05:47:06;97369.13;;;7.11;79.22
15932;BME280;8065;49.520;11.284;2022-12-07T05:49:32;97359.66;;;7.10;79.13
15932;BME280;8065;49.520;11.284;2022-12-07T05:51:59;97362.41;;;7.05;79.11
15932;BME280;8065;49.520;11.284;2022-12-07T05:54:25;97359.91;;;6.86;79.70
15932;BME280;8065;49.520;11.284;2022-12-07T05:56:52;97358.53;;;6.88;80.07
15932;BME280;8065;49.520;11.284;2022-12-07T05:59:20;97364.47;;;6.94;79.62
15932;BME280;8065;49.520;11.284;2022-12-07T06:01:48;97358.31;;;6.99;79.61
15932;BME280;8065;49.520;11.284;2022-12-07T06:04:14;97354.09;;;6.98;79.96
15932;BME280;8065;49.520;11.284;2022-12-07T06:06:41;97360.06;;;7.03;79.26
15932;BME280;8065;49.520;11.284;2022-12-07T06:09:07;97353.19;;;7.02;79.80
15932;BME280;8065;49.520;11.284;2022-12-07T06:11:34;97357.72;;;7.02;79.80
15932;BME280;8065;49.520;11.284;2022-12-07T06:14:19;97357.28;;;6.86;80.22
15932;BME280;8065;49.520;11.284;2022-12-07T06:16:46;97357.31;;;6.95;80.00
15932;BME280;8065;49.520;11.284;2022-12-07T06:19:12;97354.88;;;6.98;79.92
15932;BME280;8065;49.520;11.284;2022-12-07T06:21:39;97355.66;;;6.99;79.32
15932;BME280;8065;49.520;11.284;2022-12-07T06:24:06;97360.47;;;6.97;79.50
15932;BME280;8065;49.520;11.284;2022-12-07T06:26:33;97352.41;;;7.02;79.57
15932;BME280;8065;49.520;11.284;2022-12-07T06:28:59;97355.56;;;7.04;79.08
15932;BME280;8065;49.520;11.284;2022-12-07T06:31:27;97356.75;;;6.98;79.68
15932;BME280;8065;49.520;11.284;2022-12-07T06:33:57;97361.53;;;6.96;79.33
15932;BME280;8065;49.520;11.284;2022-12-07T06:36:24;97360.34;;;7.02;80.06
15932;BME280;8065;49.520;11.284;2022-12-07T06:38:50;97353.13;;;6.94;80.39
15932;BME280;8065;49.520;11.284;2022-12-07T06:41:17;97351.44;;;6.98;79.91
15932;BME280;8065;49.520;11.284;2022-12-07T06:43:43;97357.72;;;7.02;80.02
15932;BME280;8065;49.520;11.284;2022-12-07T06:46:10;97357.13;;;7.05;80.09
15932;BME280;8065;49.520;11.284;2022-12-07T06:48:37;97357.13;;;7.05;79.82
15932;BME280;8065;49.520;11.284;2022-12-07T06:51:04;97351.81;;;7.05;80.40
15932;BME280;8065;49.520;11.284;2022-12-07T06:53:31;97352.00;;;7.08;79.65
15932;BME280;8065;49.520;11.284;2022-12-07T06:55:57;97364.94;;;7.10;79.79
15932;BME280;8065;49.520;11.284;2022-12-07T06:58:24;97363.84;;;7.11;79.22
15932;BME280;8065;49.520;11.284;2022-12-07T07:00:50;97354.56;;;7.00;79.50
15932;BME280;8065;49.520;11.284;2022-12-07T07:03:17;97359.56;;;7.01;79.91
15932;BME280;8065;49.520;11.284;2022-12-07T07:05:45;97364.06;;;7.01;79.70
15932;BME280;8065;49.520;11.284;2022-12-07T07:08:12;97371.03;;;6.97;79.69
15932;BME280;8065;49.520;11.284;2022-12-07T07:10:38;97362.81;;;6.98;80.09
15932;BME280;8065;49.520;11.284;2022-12-07T07:13:05;97363.00;;;7.02;79.61
15932;BME280;8065;49.520;11.284;2022-12-07T07:15:32;97376.09;;;7.07;79.46
15932;BME280;8065;49.520;11.284;2022-12-07T07:17:59;97366.50;;;7.11;79.92
15932;BME280;8065;49.520;11.284;2022-12-07T07:20:25;97376.69;;;7.04;79.35
15932;BME280;8065;49.520;11.284;2022-12-07T07:22:55;97372.47;;;7.03;79.46
15932;BME280;8065;49.520;11.284;2022-12-07T07:25:22;97380.28;;;7.08;79.03
15932;BME280;8065;49.520;11.284;2022-12-07T07:27:48;97384.22;;;6.97;79.06
15932;BME280;8065;49.520;11.284;2022-12-07T07:30:15;97378.72;;;7.07;79.42
15932;BME280;8065;49.520;11.284;2022-12-07T07:32:41;97381.19;;;7.03;79.33
15932;BME280;8065;49.520;11.284;2022-12-07T07:35:08;97388.81;;;7.05;79.05
15932;BME280;8065;49.520;11.284;2022-12-07T07:37:34;97379.81;;;7.06;79.20
15932;BME280;8065;49.520;11.284;2022-12-07T07:40:03;97373.75;;;7.05;78.98
15932;BME280;8065;49.520;11.284;2022-12-07T07:42:29;97377.06;;;7.11;79.60
15932;BME280;8065;49.520;11.284;2022-12-07T07:44:56;97365.72;;;7.10;79.17
15932;BME280;8065;49.520;11.284;2022-12-07T07:47:22;97366.50;;;7.11;79.32
15932;BME280;8065;49.520;11.284;2022-12-07T07:49:48;97367.75;;;7.13;79.56
15932;BME280;8065;49.520;11.284;2022-12-07T07:52:15;97373.53;;;7.15;78.56
15932;BME280;8065;49.520;11.284;2022-12-07T07:54:41;97376.66;;;7.17;78.66
15932;BME280;8065;49.520;11.284;2022-12-07T07:57:09;97383.69;;;7.22;78.19
15932;BME280;8065;49.520;11.284;2022-12-07T07:59:36;97374.59;;;7.14;78.76
15932;BME280;8065;49.520;11.284;2022-12-07T08:02:03;97385.06;;;7.19;78.76
15932;BME280;8065;49.520;11.284;2022-12-07T08:04:29;97376.06;;;7.20;79.33
15932;BME280;8065;49.520;11.284;2022-12-07T08:06:56;97374.69;;;7.23;78.57
15932;BME280;8065;49.520;11.284;2022-12-07T08:09:23;97376.84;;;7.21;78.74
15932;BME280;8065;49.520;11.284;2022-12-07T08:11:49;97374.69;;;7.23;78.99
15932;BME280;8065;49.520;11.284;2022-12-07T08:14:17;97377.22;;;7.28;78.73
15932;BME280;8065;49.520;11.284;2022-12-07T08:16:43;97376.25;;;7.24;78.92
15932;BME280;8065;49.520;11.284;2022-12-07T08:19:10;97379.84;;;7.28;78.91
15932;BME280;8065;49.520;11.284;2022-12-07T08:21:37;97377.03;;;7.24;78.19
15932;BME280;8065;49.520;11.284;2022-12-07T08:24:04;97382.50;;;7.28;78.57
15932;BME280;8065;49.520;11.284;2022-12-07T08:26:30;97383.88;;;7.26;78.67
15932;BME280;8065;49.520;11.284;2022-12-07T08:28:57;97386.22;;;7.27;78.85
15932;BME280;8065;49.520;11.284;2022-12-07T08:31:25;97390.91;;;7.30;79.12
15932;BME280;8065;49.520;11.284;2022-12-07T08:33:53;97383.56;;;7.27;79.22
15932;BME280;8065;49.520;11.284;2022-12-07T08:36:19;97388.38;;;7.25;78.71
15932;BME280;8065;49.520;11.284;2022-12-07T08:38:47;97382.97;;;7.30;78.84
15932;BME280;8065;49.520;11.284;2022-12-07T08:41:13;97383.09;;;7.25;78.92
15932;BME280;8065;49.520;11.284;2022-12-07T08:43:40;97386.81;;;7.24;78.26
15932;BME280;8065;49.520;11.284;2022-12-07T08:46:09;97382.69;;;7.32;78.27
15932;BME280;8065;49.520;11.284;2022-12-07T08:48:41;97376.63;;;7.31;78.93
15932;BME280;8065;49.520;11.284;2022-12-07T08:51:10;97378.78;;;7.29;78.92
15932;BME280;8065;49.520;11.284;2022-12-07T08:53:38;97376.03;;;7.34;78.51
15932;BME280;8065;49.520;11.284;2022-12-07T08:56:06;97378.19;;;7.32;78.99
15932;BME280;8065;49.520;11.284;2022-12-07T08:58:33;97382.88;;;7.35;79.02
15932;BME280;8065;49.520;11.284;2022-12-07T09:01:00;97373.25;;;7.39;79.29
15932;BME280;8065;49.520;11.284;2022-12-07T09:03:27;97375.00;;;7.44;78.87
15932;BME280;8065;49.520;11.284;2022-12-07T09:05:55;97381.25;;;7.48;79.59
15932;BME280;8065;49.520;11.284;2022-12-07T09:08:22;97383.53;;;7.41;79.85
15932;BME280;8065;49.520;11.284;2022-12-07T09:10:51;97387.94;;;7.45;79.52
15932;BME280;8065;49.520;11.284;2022-12-07T09:13:18;97382.63;;;7.45;79.56
15932;BME280;8065;49.520;11.284;2022-12-07T09:15:44;97390.75;;;7.49;78.98
15932;BME280;8065;49.520;11.284;2022-12-07T09:18:10;97393.59;;;7.52;79.80
15932;BME280;8065;49.520;11.284;2022-12-07T09:20:37;97391.41;;;7.54;78.94
15932;BME280;8065;49.520;11.284;2022-12-07T09:23:06;97393.69;;;7.47;78.85
15932;BME280;8065;49.520;11.284;2022-12-07T09:25:33;97389.38;;;7.51;79.34
15932;BME280;8065;49.520;11.284;2022-12-07T09:27:59;97392.50;;;7.53;79.74
15932;BME280;8065;49.520;11.284;2022-12-07T09:30:27;97391.78;;;7.62;79.31
15932;BME280;8065;49.520;11.284;2022-12-07T09:32:54;97387.88;;;7.59;79.53
15932;BME280;8065;49.520;11.284;2022-12-07T09:35:20;97391.31;;;7.60;79.73
15932;BME280;8065;49.520;11.284;2022-12-07T09:37:47;97387.75;;;7.64;79.27
15932;BME280;8065;49.520;11.284;2022-12-07T09:40:16;97388.47;;;7.56;79.09
15932;BME280;8065;49.520;11.284;2022-12-07T09:42:47;97381.56;;;7.69;79.04
15932;BME280;8065;49.520;11.284;2022-12-07T09:45:15;97382.41;;;7.55;79.53
15932;BME280;8065;49.520;11.284;2022-12-07T09:47:43;97373.75;;;7.64;78.81
15932;BME280;8065;49.520;11.284;2022-12-07T09:50:14;97377.25;;;7.73;79.10
15932;BME280;8065;49.520;11.284;2022-12-07T09:52:42;97377.97;;;7.65;79.26
15932;BME280;8065;49.520;11.284;2022-12-07T09:55:12;97371.78;;;7.69;79.32
15932;BME280;8065;49.520;11.284;2022-12-07T09:57:41;97378.19;;;7.77;79.22
15932;BME280;8065;49.520;11.284;2022-12-07T10:00:13;97376.34;;;7.77;79.76
15932;BME280;8065;49.520;11.284;2022-12-07T10:02:41;97369.19;;;7.78;78.92
15932;BME280;8065;49.520;11.284;2022-12-07T10:05:12;97371.69;;;7.83;79.29
15932;BME280;8065;49.520;11.284;2022-12-07T10:07:39;97372.47;;;7.83;78.92
15932;BME280;8065;49.520;11.284;2022-12-07T10:10:13;97371.97;;;7.73;78.83
15932;BME280;8065;49.520;11.284;2022-12-07T10:12:58;97364.50;;;7.75;78.98
15932;BME280;8065;49.520;11.284;2022-12-07T10:15:40;97359.09;;;7.80;78.97
15932;BME280;8065;49.520;11.284;2022-12-07T10:18:17;97359.88;;;7.89;79.02
15932;BME280;8065;49.520;11.284;2022-12-07T10:20:45;97363.25;;;7.81;79.29
15932;BME280;8065;49.520;11.284;2022-12-07T10:23:14;97358.94;;;7.85;79.08
15932;BME280;8065;49.520;11.284;2022-12-07T10:25:41;97364.75;;;7.65;79.84
15932;BME280;8065;49.520;11.284;2022-12-07T10:28:14;97357.16;;;7.72;79.90
15932;BME280;8065;49.520;11.284;2022-12-07T10:30:53;97344.31;;;7.79;79.20
15932;BME280;8065;49.520;11.284;2022-12-07T10:33:34;97341.38;;;7.89;79.33
15932;BME280;8065;49.520;11.284;2022-12-07T10:36:16;97339.34;;;7.86;79.33
15932;BME280;8065;49.520;11.284;2022-12-07T10:38:46;97347.84;;;7.74;79.51
15932;BME280;8065;49.520;11.284;2022-12-07T10:41:13;97341.97;;;7.77;79.21
15932;BME280;8065;49.520;11.284;2022-12-07T10:43:52;97330.91;;;7.84;79.97
15932;BME280;8065;49.520;11.284;2022-12-07T10:46:45;97333.25;;;7.85;79.06
15932;BME280;8065;49.520;11.284;2022-12-07T10:49:30;97335.19;;;7.94;79.55
15932;BME280;8065;49.520;11.284;2022-12-07T10:52:11;97337.16;;;7.88;80.32
15932;BME280;8065;49.520;11.284;2022-12-07T10:54:48;97332.22;;;7.95;80.07
15932;BME280;8065;49.520;11.284;2022-12-07T10:57:28;97329.44;;;8.00;78.85
15932;BME280;8065;49.520;11.284;2022-12-07T11:00:11;97330.41;;;8.04;79.92
15932;BME280;8065;49.520;11.284;2022-12-07T11:02:56;97328.22;;;8.06;78.59
15932;BME280;8065;49.520;11.284;2022-12-07T11:05:27;97326.97;;;8.04;78.87
15932;BME280;8065;49.520;11.284;2022-12-07T11:08:03;97320.28;;;8.06;79.09
15932;BME280;8065;49.520;11.284;2022-12-07T11:10:39;97323.25;;;8.05;79.14
15932;BME280;8065;49.520;11.284;2022-12-07T11:13:29;97322.00;;;8.02;79.26
15932;BME280;8065;49.520;11.284;2022-12-07T11:16:21;97318.59;;;8.10;78.95
15932;BME280;8065;49.520;11.284;2022-12-07T11:21:39;97314.41;;;8.09;79.40
15932;BME280;8065;49.520;11.284;2022-12-07T11:24:10;97309.75;;;8.15;79.43
15932;BME280;8065;49.520;11.284;2022-12-07T11:27:01;97312.25;;;8.20;79.12
15932;BME280;8065;49.520;11.284;2022-12-07T11:29:46;97308.84;;;8.19;79.29
15932;BME280;8065;49.520;11.284;2022-12-07T11:32:22;97309.47;;;8.25;78.83
15932;BME280;8065;49.520;11.284;2022-12-07T11:35:01;97310.25;;;8.26;78.51
15932;BME280;8065;49.520;11.284;2022-12-07T11:37:33;97308.09;;;8.28;78.87
15932;BME280;8065;49.520;11.284;2022-12-07T11:40:02;97298.59;;;8.27;78.59
15932;BME280;8065;49.520;11.284;2022-12-07T11:42:33;97300.88;;;8.19;78.96
15932;BME280;8065;49.520;11.284;2022-12-07T11:45:12;97299.06;;;8.29;78.91
15932;BME280;8065;49.520;11.284;2022-12-07T11:47:46;97296.28;;;8.34;79.35
15932;BME280;8065;49.520;11.284;2022-12-07T11:50:27;97292.09;;;8.33;78.71
15932;BME280;8065;49.520;11.284;2022-12-07T11:52:58;97290.88;;;8.39;79.25
15932;BME280;8065;49.520;11.284;2022-12-07T11:55:30;97293.97;;;8.41;78.88
15932;BME280;8065;49.520;11.284;2022-12-07T11:58:04;97289.31;;;8.38;78.76
15932;BME280;8065;49.520;11.284;2022-12-07T12:00:31;97285.25;;;8.40;79.14
15932;BME280;8065;49.520;11.284;2022-12-07T12:03:03;97284.66;;;8.43;78.26
15932;BME280;8065;49.520;11.284;2022-12-07T12:05:35;97282.31;;;8.42;79.16
15932;BME280;8065;49.520;11.284;2022-12-07T12:08:06;97283.22;;;8.37;79.29
15932;BME280;8065;49.520;11.284;2022-12-07T12:10:49;97279.66;;;8.42;79.50
15932;BME280;8065;49.520;11.284;2022-12-07T12:16:46;97281.84;;;8.48;78.27
15932;BME280;8065;49.520;11.284;2022-12-07T12:19:24;97279.84;;;8.54;78.74
15932;BME280;8065;49.520;11.284;2022-12-07T12:21:55;97282.03;;;8.52;78.82
15932;BME280;8065;49.520;11.284;2022-12-07T12:24:25;97272.03;;;8.49;78.59
15932;BME280;8065;49.520;11.284;2022-12-07T12:26:58;97275.78;;;8.48;79.08
15932;BME280;8065;49.520;11.284;2022-12-07T12:29:30;97266.13;;;8.52;78.10
15932;BME280;8065;49.520;11.284;2022-12-07T12:32:07;97274.50;;;8.37;78.60
15932;BME280;8065;49.520;11.284;2022-12-07T12:34:41;97259.72;;;8.44;77.95
15932;BME280;8065;49.520;11.284;2022-12-07T12:37:43;97272.03;;;8.49;77.91
15932;BME280;8065;49.520;11.284;2022-12-07T12:40:39;97266.13;;;8.52;78.53
15932;BME280;8065;49.520;11.284;2022-12-07T12:43:45;97258.34;;;8.56;77.88
15932;BME280;8065;49.520;11.284;2022-12-07T12:46:48;97261.28;;;8.45;77.70
15932;BME280;8065;49.520;11.284;2022-12-07T12:49:32;97263.34;;;8.57;78.45
15932;BME280;8065;49.520;11.284;2022-12-07T12:52:00;97255.53;;;8.52;78.28
15932;BME280;8065;49.520;11.284;2022-12-07T12:54:31;97257.56;;;8.55;77.48
15932;BME280;8065;49.520;11.284;2022-12-07T12:57:00;97256.66;;;8.60;78.56
15932;BME280;8065;49.520;11.284;2022-12-07T12:59:35;97255.84;;;8.59;78.26
15932;BME280;8065;49.520;11.284;2022-12-07T13:02:15;97250.56;;;8.59;77.19
15932;BME280;8065;49.520;11.284;2022-12-07T13:04:52;97250.56;;;8.59;78.40
15932;BME280;8065;49.520;11.284;2022-12-07T13:07:57;97248.38;;;8.61;77.45
15932;BME280;8065;49.520;11.284;2022-12-07T13:10:39;97247.59;;;8.61;77.99
15932;BME280;8065;49.520;11.284;2022-12-07T13:13:34;97237.63;;;8.58;77.92
15932;BME280;8065;49.520;11.284;2022-12-07T13:16:38;97243.09;;;8.61;78.46
15932;BME280;8065;49.520;11.284;2022-12-07T13:22:40;97249.31;;;8.48;78.42
15932;BME280;8065;49.520;11.284;2022-12-07T13:25:11;97240.44;;;8.52;78.09
15932;BME280;8065;49.520;11.284;2022-12-07T13:27:40;97238.56;;;8.53;78.14
15932;BME280;8065;49.520;11.284;2022-12-07T13:30:14;97243.38;;;8.51;78.61
15932;BME280;8065;49.520;11.284;2022-12-07T13:32:43;97246.66;;;8.48;78.28
15932;BME280;8065;49.520;11.284;2022-12-07T13:35:34;97246.50;;;8.53;79.22
15932;BME280;8065;49.520;11.284;2022-12-07T13:38:04;97242.59;;;8.50;78.62